world map with EFKK marked

EFKK - Airport

This information may not be accurate or current and is not valid for navigation or flight planning. No warranty of fitness for any purpose is made or implied.

flag of Finland

Donate via PayPal

Additional information is available on the NEW Great Circle Mapper

Location
City:  Kokkola/Pietarsaari, Pohjanmaa (Österbotten;Ostrobothnia), Finland
Name:Kruunupyy
ICAO / IATA:EFKK / KOK

Details
Type:Airport (Aerodrome, Airfield)
Latitude:63°43'16"N (63.721172)
Longitude:23°08'35"E (23.143131)
Datum:WGS 1984
Elevation:84 ft (26 m)
Runways:2
Longest:8202 × 197 ft (2500 × 60 m)

Time
Timezone:UTC+2 (DST+5)
Local Time:

Weather
METAR:EFKK  041350Z AUTO 23007KT 200V260 9999 -SN BKN008 OVC054 M07/M08 Q1010
TAF:EFKK  (expired)

Related Locations
Nearby:
Farthest:NZTB: 11243 mi / 18094 km
Terra Nova Bay [Mario Zucchelli Station], AQ

Find:

   beyond  
but within

Other Information
Maps:
Sources:

  


 


Great Circle Mapper   Great Circle Mapper
Great Circle Mapper FAQ   Great Circle Mapper FAQ
  Karl's Home Page
KLS˛   KLS˛ Home
   GC on Facebook
Airlines of the World   Airlines of the World
Donate via PayPal


Copyright © 2004-2019, Karl L. Swartz. All rights reserved.
All trademarks mentioned herein belong to their respective owners.

Please see credits for attribution and copyright information.

Karl Swartz <karl@kls2.com>
  Powered by FreeBSD
Valid HTML 4.01!
Labeled with ICRA
hCard Microformat
Geo Microformat